createdAt,value
2023-06-28T00:01:23.643Z,4.40
2023-06-28T00:06:26.412Z,5.00
2023-06-28T00:11:29.628Z,3.50
2023-06-28T00:16:32.731Z,4.50
2023-06-28T00:21:35.571Z,4.80
2023-06-28T00:26:38.346Z,3.70
2023-06-28T00:31:41.167Z,3.90
2023-06-28T00:36:43.991Z,3.90
2023-06-28T00:41:46.750Z,3.60
2023-06-28T00:46:50.032Z,4.90
2023-06-28T00:51:52.842Z,4.70
2023-06-28T00:56:55.656Z,3.50
2023-06-28T01:01:58.643Z,4.50
2023-06-28T01:12:05.774Z,4.40
2023-06-28T01:17:08.641Z,4.60
2023-06-28T01:22:14.226Z,4.20
2023-06-28T01:27:17.205Z,4.30
2023-06-28T01:37:24.147Z,4.30
2023-06-28T01:47:30.455Z,4.30
2023-06-28T01:52:33.338Z,5.00
2023-06-28T01:57:36.120Z,5.30
2023-06-28T02:02:38.937Z,4.20
2023-06-28T02:07:42.096Z,4.40
2023-06-28T02:12:45.229Z,5.10
2023-06-28T02:17:49.222Z,6.40
2023-06-28T02:22:52.163Z,5.60
2023-06-28T02:27:54.967Z,5.90
2023-06-28T02:32:57.784Z,5.70
2023-06-28T02:38:00.636Z,6.70
2023-06-28T02:43:03.505Z,7.60
2023-06-28T02:48:06.420Z,4.90
2023-06-28T02:58:13.411Z,4.60
2023-06-28T03:03:16.899Z,6.90
2023-06-28T03:08:19.796Z,5.20
2023-06-28T03:13:23.117Z,5.10
2023-06-28T03:18:25.989Z,6.40
2023-06-28T03:28:31.496Z,6.30
2023-06-28T03:38:37.356Z,6.30
2023-06-28T03:43:40.062Z,5.30
2023-06-28T03:48:42.837Z,5.20
2023-06-28T03:53:45.618Z,4.90
2023-06-28T03:58:50.934Z,4.70
2023-06-28T04:03:53.769Z,5.70
2023-06-28T04:13:59.217Z,4.90
2023-06-28T04:19:02.005Z,4.30
2023-06-28T04:29:07.713Z,3.90
2023-06-28T04:39:13.669Z,3.30
2023-06-28T04:44:17.245Z,4.00
2023-06-28T04:49:20.061Z,4.00
2023-06-28T04:59:25.487Z,3.40
2023-06-28T05:04:28.294Z,3.50
2023-06-28T05:14:35.042Z,3.50
2023-06-28T05:19:37.916Z,3.80
2023-06-28T05:24:40.723Z,2.90
2023-06-28T05:29:43.463Z,3.70
2023-06-28T05:39:48.923Z,3.60
2023-06-28T05:49:54.392Z,2.70
2023-06-28T05:59:59.906Z,3.50
2023-06-28T06:05:05.669Z,3.30
2023-06-28T06:10:10.631Z,3.40
2023-06-28T06:15:14.009Z,3.50
2023-06-28T06:20:16.936Z,3.40
2023-06-28T06:25:19.993Z,3.60
2023-06-28T06:30:22.790Z,3.20
2023-06-28T06:35:26.968Z,3.90
2023-06-28T06:40:29.768Z,3.30
2023-06-28T06:45:32.650Z,3.00
2023-06-28T06:50:35.474Z,3.60
2023-06-28T06:55:38.298Z,3.10
2023-06-28T07:00:41.187Z,3.10
2023-06-28T07:05:44.717Z,3.30
2023-06-28T07:10:47.818Z,3.40
2023-06-28T07:15:50.592Z,3.30
2023-06-28T07:20:53.320Z,2.80
2023-06-28T07:25:56.097Z,3.30
2023-06-28T07:31:00.322Z,3.30
2023-06-28T07:36:03.651Z,3.90
2023-06-28T07:41:07.687Z,3.90
2023-06-28T07:46:10.939Z,3.70
2023-06-28T07:51:13.775Z,3.00
2023-06-28T07:56:16.682Z,3.10
2023-06-28T08:01:19.479Z,3.80
2023-06-28T08:06:22.331Z,3.40
2023-06-28T08:11:28.181Z,3.00
2023-06-28T08:16:31.000Z,3.00
2023-06-28T08:21:33.877Z,3.70
2023-06-28T08:26:37.475Z,3.70
2023-06-28T08:31:40.382Z,3.30
2023-06-28T08:36:43.670Z,4.40
2023-06-28T08:41:47.042Z,3.20
2023-06-28T08:46:51.061Z,3.00
2023-06-28T08:51:55.782Z,3.60
2023-06-28T08:57:11.362Z,3.10
2023-06-28T09:02:20.819Z,3.60
2023-06-28T09:07:24.690Z,4.50
2023-06-28T09:12:29.500Z,3.50
2023-06-28T09:17:32.417Z,3.40
2023-06-28T09:22:35.361Z,3.40
2023-06-28T09:27:38.217Z,4.30
2023-06-28T09:32:46.701Z,3.30
2023-06-28T09:37:51.995Z,3.50
2023-06-28T09:42:54.836Z,3.70
2023-06-28T09:48:02.205Z,3.20
2023-06-28T09:53:14.151Z,4.40
2023-06-28T09:58:19.402Z,3.90
2023-06-28T10:03:25.983Z,3.10
2023-06-28T10:08:29.011Z,3.60
2023-06-28T10:13:31.942Z,3.70
2023-06-28T10:18:34.882Z,3.20
2023-06-28T10:23:40.485Z,3.60
2023-06-28T10:28:45.295Z,3.10
2023-06-28T10:33:49.107Z,3.10
2023-06-28T10:38:52.751Z,3.10
2023-06-28T10:44:06.748Z,4.30
2023-06-28T10:49:09.691Z,3.60
2023-06-28T10:54:16.045Z,3.50
2023-06-28T10:59:19.899Z,2.90
2023-06-28T11:04:27.007Z,3.10
2023-06-28T11:09:29.907Z,3.30
2023-06-28T11:14:33.488Z,3.60
2023-06-28T11:19:36.321Z,3.40
2023-06-28T11:24:39.119Z,3.40
2023-06-28T11:29:59.940Z,3.70
2023-06-28T11:35:05.523Z,3.20
2023-06-28T11:40:09.909Z,3.30
2023-06-28T11:45:13.910Z,3.20
2023-06-28T11:50:17.194Z,3.60
2023-06-28T11:55:20.373Z,3.60
2023-06-28T12:00:23.468Z,3.00
2023-06-28T12:05:28.309Z,3.50
2023-06-28T12:10:36.559Z,3.00
2023-06-28T12:15:39.508Z,3.10
2023-06-28T12:20:44.709Z,3.20
2023-06-28T12:25:48.591Z,2.90
2023-06-28T12:30:57.658Z,2.90
2023-06-28T12:36:01.360Z,3.10
2023-06-28T12:41:07.553Z,2.80
2023-06-28T12:46:11.690Z,2.90
2023-06-28T12:51:14.479Z,2.30
2023-06-28T12:56:17.378Z,2.70
2023-06-28T13:01:20.205Z,3.00
2023-06-28T13:06:23.621Z,2.90
2023-06-28T13:11:31.005Z,2.90
2023-06-28T13:16:33.897Z,2.90
2023-06-28T13:21:36.889Z,3.20
2023-06-28T13:26:39.740Z,2.90
2023-06-28T13:31:44.581Z,3.00
2023-06-28T13:36:48.484Z,2.50
2023-06-28T13:41:51.383Z,2.70
2023-06-28T13:46:54.260Z,3.30
2023-06-28T13:51:57.052Z,3.10
2023-06-28T13:57:00.052Z,2.80
2023-06-28T14:02:02.958Z,2.70
2023-06-28T14:07:06.873Z,2.30
2023-06-28T14:12:10.046Z,2.70
2023-06-28T14:17:13.013Z,2.60
2023-06-28T14:22:16.131Z,2.40
2023-06-28T14:27:18.888Z,2.70
2023-06-28T14:32:22.481Z,2.90
2023-06-28T14:37:25.321Z,2.50
2023-06-28T14:42:28.161Z,2.60
2023-06-28T14:47:31.042Z,3.00
2023-06-28T14:52:34.004Z,2.40
2023-06-28T14:57:36.750Z,2.60
2023-06-28T15:02:39.701Z,2.40
2023-06-28T15:07:42.777Z,2.70
2023-06-28T15:12:45.544Z,2.90
2023-06-28T15:17:48.408Z,2.80
2023-06-28T15:22:54.456Z,2.50
2023-06-28T15:27:57.190Z,2.70
2023-06-28T15:33:00.106Z,2.50
2023-06-28T15:38:03.838Z,2.50
2023-06-28T15:43:06.763Z,3.00
2023-06-28T15:48:10.089Z,2.70
2023-06-28T15:53:12.917Z,2.90
2023-06-28T15:58:15.774Z,3.00
2023-06-28T16:03:18.962Z,2.80
2023-06-28T16:08:21.988Z,2.60
2023-06-28T16:13:25.843Z,2.90
2023-06-28T16:18:28.659Z,2.80
2023-06-28T16:23:31.484Z,3.00
2023-06-28T16:28:34.260Z,2.70
2023-06-28T16:33:37.753Z,2.40
2023-06-28T16:38:40.595Z,2.50
2023-06-28T16:43:43.398Z,2.50
2023-06-28T16:48:46.390Z,3.00
2023-06-28T16:53:49.330Z,2.70
2023-06-28T16:58:52.112Z,2.60
2023-06-28T17:03:55.470Z,2.50
2023-06-28T17:08:58.229Z,2.70
2023-06-28T17:14:01.026Z,2.50
2023-06-28T17:19:04.920Z,2.60
2023-06-28T17:24:08.140Z,2.50
2023-06-28T17:29:11.051Z,2.30
2023-06-28T17:34:13.910Z,2.30
2023-06-28T17:39:18.414Z,2.60
2023-06-28T17:44:21.174Z,2.30
2023-06-28T17:49:24.400Z,2.40
2023-06-28T17:54:29.316Z,3.20
2023-06-28T17:59:32.187Z,4.10
2023-06-28T18:04:35.209Z,2.80
2023-06-28T18:09:38.176Z,3.90
2023-06-28T18:14:43.660Z,3.40
2023-06-28T18:19:47.054Z,2.80
2023-06-28T18:24:49.803Z,3.50
2023-06-28T18:29:52.661Z,3.60
2023-06-28T18:34:55.473Z,2.70
2023-06-28T18:39:58.343Z,3.90
2023-06-28T18:45:01.201Z,7.60
2023-06-28T18:50:05.054Z,4.10
2023-06-28T18:55:09.579Z,4.30
2023-06-28T19:00:16.227Z,4.20
2023-06-28T19:05:19.140Z,4.70
2023-06-28T19:10:22.233Z,4.40
2023-06-28T19:15:25.905Z,4.50
2023-06-28T19:20:28.649Z,4.30
2023-06-28T19:25:31.683Z,5.60
2023-06-28T19:30:34.725Z,5.90
2023-06-28T19:35:37.689Z,4.60
2023-06-28T19:40:40.664Z,3.90
2023-06-28T19:45:44.922Z,3.40
2023-06-28T19:50:48.015Z,4.40
2023-06-28T19:55:50.816Z,3.40
2023-06-28T20:00:54.369Z,3.20
2023-06-28T20:05:57.231Z,2.90
2023-06-28T20:16:03.044Z,3.20
2023-06-28T20:21:05.966Z,3.60
2023-06-28T20:26:08.758Z,4.60
2023-06-28T20:36:14.960Z,4.30
2023-06-28T20:41:26.014Z,3.60
2023-06-28T20:46:29.246Z,2.90
2023-06-28T20:56:34.705Z,3.50
2023-06-28T21:06:41.233Z,4.20
2023-06-28T21:11:43.989Z,4.60
2023-06-28T21:21:49.886Z,3.70
2023-06-28T21:31:55.424Z,4.90
2023-06-28T21:42:01.032Z,4.40
2023-06-28T21:52:07.206Z,4.30
2023-06-28T21:57:10.087Z,4.70
2023-06-28T22:07:15.766Z,5.30
2023-06-28T22:17:21.354Z,5.50
2023-06-28T22:27:27.165Z,6.30
2023-06-28T22:32:30.048Z,6.10
2023-06-28T22:37:32.918Z,5.80
2023-06-28T22:42:35.734Z,6.30
2023-06-28T22:52:45.622Z,6.20
2023-06-28T22:57:49.356Z,6.40
2023-06-28T23:02:52.240Z,6.10
2023-06-28T23:07:55.590Z,7.10
2023-06-28T23:12:58.345Z,6.70
2023-06-28T23:18:02.086Z,6.90
2023-06-28T23:23:05.432Z,5.70
2023-06-28T23:28:08.167Z,5.90
2023-06-28T23:33:15.327Z,6.50
2023-06-28T23:38:18.324Z,6.40
2023-06-28T23:48:27.019Z,5.90
2023-06-28T23:53:29.828Z,6.30
